CAF4081 ZSJN-ZSHC
Flight info
| Callsign | CAF4081 |
|---|---|
| Flight time | 1h 1m |
| Altitude | 33100 |
| Route | K0843S1130 ABT81D ABTUB A593 DPX A470 OF W95 SAPIN A470 IGRAT IGR81A |
| Aircraft | B738/M-SDE2E3FGHIRWXY/LB1 |
Departure
| Time | 2026-04-23 12:31 |
|---|---|
| Airport | Jinan Yaoqiang International Airport (ZSJN) |
Arrival
| Time | 2026-04-23 13:32 |
|---|---|
| Airport | Hangzhou Xiaoshan International Airport (ZSHC) |
| Time | Latitude | Longitude | Altitude | Speed | Heading |
|---|---|---|---|---|---|
| 2026-04-23 12:14 | 36.85257 | 117.21146 | 83 ft | 0 kts | 90° |
| 2026-04-23 12:22 | 36.85257 | 117.21127 | 81 ft | 4 kts | 90° |
| 2026-04-23 12:23 | 36.85255 | 117.21099 | 81 ft | 4 kts | 74° |
| 2026-04-23 12:23 | 36.85238 | 117.21070 | 85 ft | 4 kts | 2° |
| 2026-04-23 12:23 | 36.85225 | 117.21069 | 83 ft | 0 kts | 2° |
| 2026-04-23 12:24 | 36.85221 | 117.21069 | 83 ft | 3 kts | 343° |
| 2026-04-23 12:24 | 36.85240 | 117.21075 | 85 ft | 0 kts | 183° |
| 2026-04-23 12:24 | 36.85247 | 117.21074 | 84 ft | 8 kts | 114° |
| 2026-04-23 12:25 | 36.85233 | 117.21070 | 85 ft | 13 kts | 4° |
| 2026-04-23 12:25 | 36.85387 | 117.21104 | 82 ft | 20 kts | 44° |
| 2026-04-23 12:25 | 36.85415 | 117.21259 | 83 ft | 19 kts | 117° |
| 2026-04-23 12:25 | 36.85384 | 117.21366 | 80 ft | 0 kts | 71° |
| 2026-04-23 12:26 | 36.85432 | 117.21405 | 83 ft | 25 kts | 11° |
| 2026-04-23 12:26 | 36.85764 | 117.21378 | 83 ft | 51 kts | 359° |
| 2026-04-23 12:26 | 36.86111 | 117.21371 | 81 ft | 48 kts | 1° |
| 2026-04-23 12:26 | 36.86437 | 117.21368 | 83 ft | 45 kts | 358° |
| 2026-04-23 12:27 | 36.86741 | 117.21369 | 82 ft | 43 kts | 360° |
| 2026-04-23 12:27 | 36.87198 | 117.21368 | 84 ft | 43 kts | 359° |
| 2026-04-23 12:27 | 36.87336 | 117.21416 | 83 ft | 11 kts | 65° |
| 2026-04-23 12:27 | 36.87340 | 117.21480 | 83 ft | 0 kts | 88° |
| 2026-04-23 12:30 | 36.87329 | 117.21561 | 89 ft | 17 kts | 123° |
| 2026-04-23 12:30 | 36.87139 | 117.21595 | 87 ft | 65 kts | 181° |
| 2026-04-23 12:30 | 36.86355 | 117.21596 | 84 ft | 155 kts | 182° |
| 2026-04-23 12:31 | 36.85390 | 117.21750 | 1220 ft | 125 kts | 173° |
| 2026-04-23 12:31 | 36.84328 | 117.21951 | 1400 ft | 189 kts | 174° |
| 2026-04-23 12:31 | 36.82871 | 117.22129 | 1527 ft | 223 kts | 181° |
| 2026-04-23 12:31 | 36.81273 | 117.22281 | 1743 ft | 243 kts | 175° |
| 2026-04-23 12:32 | 36.79506 | 117.22597 | 1961 ft | 270 kts | 174° |
| 2026-04-23 12:32 | 36.77569 | 117.22969 | 2147 ft | 293 kts | 173° |
| 2026-04-23 12:32 | 36.75484 | 117.23368 | 2595 ft | 317 kts | 173° |
| 2026-04-23 12:32 | 36.73179 | 117.23803 | 3209 ft | 346 kts | 172° |
| 2026-04-23 12:33 | 36.70816 | 117.24244 | 4855 ft | 338 kts | 171° |
| 2026-04-23 12:33 | 36.68514 | 117.24669 | 6498 ft | 336 kts | 172° |
| 2026-04-23 12:33 | 36.66085 | 117.25112 | 6912 ft | 367 kts | 172° |
| 2026-04-23 12:33 | 36.63494 | 117.25580 | 7713 ft | 377 kts | 172° |
| 2026-04-23 12:34 | 36.60934 | 117.26039 | 9159 ft | 369 kts | 172° |
| 2026-04-23 12:34 | 36.58371 | 117.26498 | 9764 ft | 377 kts | 172° |
| 2026-04-23 12:34 | 36.55730 | 117.26969 | 10247 ft | 387 kts | 172° |
| 2026-04-23 12:34 | 36.53039 | 117.27448 | 10719 ft | 395 kts | 172° |
| 2026-04-23 12:35 | 36.50305 | 117.27931 | 11171 ft | 397 kts | 172° |
| 2026-04-23 12:35 | 36.47563 | 117.28418 | 11661 ft | 399 kts | 172° |
| 2026-04-23 12:35 | 36.44800 | 117.28910 | 12153 ft | 402 kts | 172° |
| 2026-04-23 12:35 | 36.42024 | 117.29404 | 12632 ft | 405 kts | 172° |
| 2026-04-23 12:36 | 36.39257 | 117.29894 | 13126 ft | 409 kts | 172° |
| 2026-04-23 12:36 | 36.36418 | 117.30397 | 13642 ft | 415 kts | 172° |
| 2026-04-23 12:36 | 36.33549 | 117.30905 | 14114 ft | 418 kts | 172° |
| 2026-04-23 12:36 | 36.30650 | 117.31418 | 14576 ft | 422 kts | 172° |
| 2026-04-23 12:37 | 36.27736 | 117.31933 | 15047 ft | 424 kts | 172° |
| 2026-04-23 12:37 | 36.24812 | 117.32449 | 15516 ft | 426 kts | 172° |
| 2026-04-23 12:37 | 36.21873 | 117.32968 | 15992 ft | 427 kts | 172° |
| 2026-04-23 12:37 | 36.18923 | 117.33489 | 16478 ft | 430 kts | 172° |
| 2026-04-23 12:38 | 36.15947 | 117.34013 | 16971 ft | 434 kts | 172° |
| 2026-04-23 12:38 | 36.12942 | 117.34543 | 17478 ft | 437 kts | 172° |
| 2026-04-23 12:38 | 36.09919 | 117.35075 | 17988 ft | 441 kts | 171° |
| 2026-04-23 12:38 | 36.06872 | 117.35610 | 18479 ft | 444 kts | 172° |
| 2026-04-23 12:39 | 36.03806 | 117.36148 | 18929 ft | 446 kts | 171° |
| 2026-04-23 12:39 | 36.00725 | 117.36696 | 19387 ft | 449 kts | 170° |
| 2026-04-23 12:39 | 35.97670 | 117.37516 | 19839 ft | 450 kts | 163° |
| 2026-04-23 12:39 | 35.94669 | 117.38628 | 20314 ft | 451 kts | 162° |
| 2026-04-23 12:40 | 35.91667 | 117.39804 | 20792 ft | 453 kts | 162° |
| 2026-04-23 12:40 | 35.88661 | 117.40990 | 21275 ft | 454 kts | 162° |
| 2026-04-23 12:40 | 35.85647 | 117.42167 | 21765 ft | 455 kts | 162° |
| 2026-04-23 12:40 | 35.82663 | 117.43313 | 22262 ft | 455 kts | 163° |
| 2026-04-23 12:41 | 35.79594 | 117.44475 | 22768 ft | 456 kts | 163° |
| 2026-04-23 12:41 | 35.76539 | 117.45621 | 23057 ft | 462 kts | 163° |
| 2026-04-23 12:41 | 35.73491 | 117.46758 | 23338 ft | 466 kts | 163° |
| 2026-04-23 12:41 | 35.70328 | 117.47935 | 23629 ft | 471 kts | 164° |
| 2026-04-23 12:42 | 35.67217 | 117.49090 | 23861 ft | 475 kts | 164° |
| 2026-04-23 12:42 | 35.64039 | 117.50272 | 24097 ft | 479 kts | 164° |
| 2026-04-23 12:42 | 35.60839 | 117.51461 | 24338 ft | 482 kts | 164° |
| 2026-04-23 12:42 | 35.57619 | 117.52657 | 24575 ft | 485 kts | 164° |
| 2026-04-23 12:43 | 35.54379 | 117.53860 | 24813 ft | 488 kts | 164° |
| 2026-04-23 12:43 | 35.51124 | 117.55067 | 25054 ft | 490 kts | 164° |
| 2026-04-23 12:43 | 35.47852 | 117.56280 | 25297 ft | 492 kts | 165° |
| 2026-04-23 12:43 | 35.44570 | 117.57495 | 25536 ft | 494 kts | 165° |
| 2026-04-23 12:44 | 35.41269 | 117.58716 | 25785 ft | 495 kts | 165° |
| 2026-04-23 12:44 | 35.37966 | 117.59937 | 26032 ft | 496 kts | 165° |
| 2026-04-23 12:44 | 35.34656 | 117.61160 | 26280 ft | 497 kts | 165° |
| 2026-04-23 12:44 | 35.31347 | 117.62381 | 26521 ft | 497 kts | 165° |
| 2026-04-23 12:45 | 35.28030 | 117.63604 | 26649 ft | 499 kts | 165° |
| 2026-04-23 12:45 | 35.24701 | 117.64830 | 26649 ft | 500 kts | 165° |
| 2026-04-23 12:45 | 35.21368 | 117.66058 | 26643 ft | 500 kts | 165° |
| 2026-04-23 12:45 | 35.18036 | 117.67283 | 26646 ft | 499 kts | 165° |
| 2026-04-23 12:46 | 35.14716 | 117.68504 | 26653 ft | 498 kts | 165° |
| 2026-04-23 12:46 | 35.11443 | 117.69706 | 26649 ft | 498 kts | 165° |
| 2026-04-23 12:46 | 35.08131 | 117.70921 | 26648 ft | 498 kts | 166° |
| 2026-04-23 12:46 | 35.04809 | 117.72137 | 26645 ft | 497 kts | 166° |
| 2026-04-23 12:47 | 35.01499 | 117.73344 | 26652 ft | 497 kts | 166° |
| 2026-04-23 12:47 | 34.98178 | 117.74553 | 26652 ft | 497 kts | 166° |
| 2026-04-23 12:47 | 34.94868 | 117.75757 | 26654 ft | 497 kts | 166° |
| 2026-04-23 12:47 | 34.91554 | 117.76962 | 26649 ft | 497 kts | 166° |
| 2026-04-23 12:48 | 34.88238 | 117.78168 | 26648 ft | 497 kts | 166° |
| 2026-04-23 12:48 | 34.84921 | 117.79373 | 26654 ft | 497 kts | 166° |
| 2026-04-23 12:48 | 34.81604 | 117.80563 | 26635 ft | 497 kts | 166° |
| 2026-04-23 12:48 | 34.78289 | 117.81742 | 26643 ft | 497 kts | 166° |
| 2026-04-23 12:49 | 34.74973 | 117.82929 | 26649 ft | 497 kts | 166° |
| 2026-04-23 12:49 | 34.71657 | 117.84120 | 26653 ft | 497 kts | 166° |
| 2026-04-23 12:49 | 34.68337 | 117.85313 | 26652 ft | 497 kts | 166° |
| 2026-04-23 12:49 | 34.65025 | 117.86504 | 26651 ft | 497 kts | 166° |
| 2026-04-23 12:50 | 34.61746 | 117.87681 | 26651 ft | 497 kts | 166° |
| 2026-04-23 12:50 | 34.58428 | 117.88870 | 26652 ft | 497 kts | 166° |
| 2026-04-23 12:50 | 34.55118 | 117.90056 | 26649 ft | 496 kts | 166° |
| 2026-04-23 12:50 | 34.51806 | 117.91240 | 26654 ft | 496 kts | 166° |
| 2026-04-23 12:51 | 34.48495 | 117.92424 | 26652 ft | 496 kts | 166° |
| 2026-04-23 12:51 | 34.45189 | 117.93604 | 26655 ft | 496 kts | 166° |
| 2026-04-23 12:51 | 34.41874 | 117.94787 | 26656 ft | 496 kts | 166° |
| 2026-04-23 12:51 | 34.38568 | 117.95965 | 26655 ft | 496 kts | 166° |
| 2026-04-23 12:52 | 34.35251 | 117.97148 | 26658 ft | 496 kts | 166° |
| 2026-04-23 12:52 | 34.31945 | 117.98325 | 26643 ft | 496 kts | 167° |
| 2026-04-23 12:52 | 34.28639 | 117.99501 | 26651 ft | 495 kts | 167° |
| 2026-04-23 12:52 | 34.25336 | 118.00685 | 26655 ft | 495 kts | 166° |
| 2026-04-23 12:53 | 34.22040 | 118.01888 | 26660 ft | 495 kts | 166° |
| 2026-04-23 12:53 | 34.18751 | 118.03099 | 26661 ft | 495 kts | 166° |
| 2026-04-23 12:53 | 34.15458 | 118.04312 | 26660 ft | 494 kts | 166° |
| 2026-04-23 12:53 | 34.12170 | 118.05520 | 26660 ft | 494 kts | 166° |
| 2026-04-23 12:54 | 34.08880 | 118.06724 | 26659 ft | 494 kts | 167° |
| 2026-04-23 12:54 | 34.05586 | 118.07926 | 26641 ft | 494 kts | 167° |
| 2026-04-23 12:54 | 34.02296 | 118.09126 | 26653 ft | 493 kts | 167° |
| 2026-04-23 12:54 | 33.99012 | 118.10324 | 26661 ft | 493 kts | 167° |
| 2026-04-23 12:55 | 33.95727 | 118.11526 | 26655 ft | 493 kts | 167° |
| 2026-04-23 12:55 | 33.92448 | 118.12726 | 26654 ft | 493 kts | 167° |
| 2026-04-23 12:55 | 33.89159 | 118.13929 | 26657 ft | 493 kts | 167° |
| 2026-04-23 12:55 | 33.85878 | 118.15129 | 26662 ft | 493 kts | 167° |
| 2026-04-23 12:56 | 33.82596 | 118.16326 | 26665 ft | 493 kts | 167° |
| 2026-04-23 12:56 | 33.79304 | 118.17527 | 26642 ft | 493 kts | 168° |
| 2026-04-23 12:56 | 33.76020 | 118.18724 | 26650 ft | 493 kts | 168° |
| 2026-04-23 12:56 | 33.72740 | 118.19919 | 26654 ft | 493 kts | 168° |
| 2026-04-23 12:57 | 33.69458 | 118.21114 | 26658 ft | 493 kts | 168° |
| 2026-04-23 12:57 | 33.66177 | 118.22308 | 26658 ft | 493 kts | 168° |
| 2026-04-23 12:57 | 33.62938 | 118.23486 | 26657 ft | 493 kts | 168° |
| 2026-04-23 12:57 | 33.59651 | 118.24681 | 26654 ft | 493 kts | 168° |
| 2026-04-23 12:58 | 33.56369 | 118.25873 | 26635 ft | 493 kts | 168° |
| 2026-04-23 12:58 | 33.53083 | 118.27066 | 26644 ft | 492 kts | 168° |
| 2026-04-23 12:58 | 33.49810 | 118.28253 | 26649 ft | 492 kts | 168° |
| 2026-04-23 12:58 | 33.46530 | 118.29441 | 26653 ft | 492 kts | 168° |
| 2026-04-23 12:59 | 33.43260 | 118.30624 | 26656 ft | 492 kts | 168° |
| 2026-04-23 12:59 | 33.39986 | 118.31809 | 26655 ft | 492 kts | 168° |
| 2026-04-23 12:59 | 33.36701 | 118.32996 | 26655 ft | 492 kts | 168° |
| 2026-04-23 12:59 | 33.33425 | 118.34179 | 26655 ft | 492 kts | 168° |
| 2026-04-23 13:00 | 33.30150 | 118.35361 | 26632 ft | 492 kts | 168° |
| 2026-04-23 13:00 | 33.26878 | 118.36542 | 26647 ft | 491 kts | 168° |
| 2026-04-23 13:00 | 33.23600 | 118.37716 | 26642 ft | 490 kts | 169° |
| 2026-04-23 13:00 | 33.20338 | 118.38891 | 26647 ft | 490 kts | 169° |
| 2026-04-23 13:01 | 33.17075 | 118.40065 | 26655 ft | 489 kts | 169° |
| 2026-04-23 13:01 | 33.13815 | 118.41234 | 26656 ft | 489 kts | 169° |
| 2026-04-23 13:01 | 33.10595 | 118.42386 | 26648 ft | 489 kts | 169° |
| 2026-04-23 13:01 | 33.07340 | 118.43549 | 26645 ft | 489 kts | 169° |
| 2026-04-23 13:02 | 33.04075 | 118.44715 | 26653 ft | 489 kts | 169° |
| 2026-04-23 13:02 | 33.00820 | 118.45877 | 26650 ft | 489 kts | 169° |
| 2026-04-23 13:02 | 32.97561 | 118.47039 | 26652 ft | 489 kts | 169° |
| 2026-04-23 13:02 | 32.94293 | 118.48205 | 26651 ft | 489 kts | 169° |
| 2026-04-23 13:03 | 32.91031 | 118.49367 | 26645 ft | 489 kts | 169° |
| 2026-04-23 13:03 | 32.87770 | 118.50529 | 26649 ft | 489 kts | 169° |
| 2026-04-23 13:03 | 32.84513 | 118.51687 | 26652 ft | 489 kts | 169° |
| 2026-04-23 13:03 | 32.81246 | 118.52849 | 26646 ft | 489 kts | 169° |
| 2026-04-23 13:04 | 32.77988 | 118.54007 | 26630 ft | 489 kts | 169° |
| 2026-04-23 13:04 | 32.74728 | 118.55165 | 26633 ft | 489 kts | 169° |
| 2026-04-23 13:04 | 32.71469 | 118.56321 | 26649 ft | 488 kts | 169° |
| 2026-04-23 13:04 | 32.68217 | 118.57474 | 26648 ft | 488 kts | 169° |
| 2026-04-23 13:05 | 32.64957 | 118.58618 | 26646 ft | 488 kts | 170° |
| 2026-04-23 13:05 | 32.61695 | 118.59734 | 26648 ft | 488 kts | 170° |
| 2026-04-23 13:05 | 32.58429 | 118.60838 | 26650 ft | 487 kts | 170° |
| 2026-04-23 13:05 | 32.55167 | 118.61937 | 26650 ft | 488 kts | 170° |
| 2026-04-23 13:06 | 32.48644 | 118.64144 | 26639 ft | 487 kts | 171° |
| 2026-04-23 13:06 | 32.45387 | 118.65247 | 26639 ft | 487 kts | 171° |
| 2026-04-23 13:06 | 32.42132 | 118.66351 | 26643 ft | 487 kts | 171° |
| 2026-04-23 13:07 | 32.38873 | 118.67444 | 26632 ft | 486 kts | 171° |
| 2026-04-23 13:07 | 32.35627 | 118.68548 | 26637 ft | 486 kts | 171° |
| 2026-04-23 13:07 | 32.32374 | 118.69656 | 26643 ft | 486 kts | 171° |
| 2026-04-23 13:07 | 32.29164 | 118.70744 | 26642 ft | 485 kts | 171° |
| 2026-04-23 13:08 | 32.25922 | 118.71839 | 26621 ft | 485 kts | 172° |
| 2026-04-23 13:08 | 32.22683 | 118.72931 | 26636 ft | 484 kts | 172° |
| 2026-04-23 13:08 | 32.19438 | 118.74024 | 26638 ft | 484 kts | 172° |
| 2026-04-23 13:08 | 32.16200 | 118.75115 | 26644 ft | 484 kts | 172° |
| 2026-04-23 13:09 | 32.12960 | 118.76205 | 26639 ft | 484 kts | 172° |
| 2026-04-23 13:09 | 32.10810 | 118.76929 | 26638 ft | 484 kts | 172° |
| 2026-04-23 13:09 | 32.07573 | 118.78018 | 26638 ft | 484 kts | 172° |
| 2026-04-23 13:09 | 32.04334 | 118.79107 | 26641 ft | 484 kts | 172° |
| 2026-04-23 13:10 | 32.01086 | 118.80198 | 26644 ft | 484 kts | 172° |
| 2026-04-23 13:10 | 31.97842 | 118.81283 | 26634 ft | 483 kts | 172° |
| 2026-04-23 13:10 | 31.94607 | 118.82322 | 26640 ft | 482 kts | 173° |
| 2026-04-23 13:10 | 31.91364 | 118.83337 | 26643 ft | 482 kts | 173° |
| 2026-04-23 13:11 | 31.88121 | 118.84353 | 26649 ft | 482 kts | 173° |
| 2026-04-23 13:11 | 31.84879 | 118.85376 | 26650 ft | 482 kts | 173° |
| 2026-04-23 13:11 | 31.81646 | 118.86453 | 26648 ft | 484 kts | 171° |
| 2026-04-23 13:11 | 31.78431 | 118.87697 | 26642 ft | 491 kts | 166° |
| 2026-04-23 13:12 | 31.75344 | 118.89497 | 26652 ft | 500 kts | 157° |
| 2026-04-23 13:12 | 31.72444 | 118.91816 | 26656 ft | 511 kts | 148° |
| 2026-04-23 13:12 | 31.69795 | 118.94649 | 26684 ft | 516 kts | 143° |
| 2026-04-23 13:12 | 31.67173 | 118.97529 | 26661 ft | 513 kts | 147° |
| 2026-04-23 13:13 | 31.64348 | 119.00035 | 26674 ft | 506 kts | 153° |
| 2026-04-23 13:13 | 31.61462 | 119.02399 | 26638 ft | 507 kts | 152° |
| 2026-04-23 13:13 | 31.58596 | 119.04834 | 26632 ft | 509 kts | 151° |
| 2026-04-23 13:13 | 31.55753 | 119.07319 | 26644 ft | 510 kts | 150° |
| 2026-04-23 13:14 | 31.52919 | 119.09819 | 26634 ft | 510 kts | 150° |
| 2026-04-23 13:14 | 31.50076 | 119.12315 | 26637 ft | 510 kts | 151° |
| 2026-04-23 13:14 | 31.47227 | 119.14803 | 26643 ft | 510 kts | 151° |
| 2026-04-23 13:14 | 31.44419 | 119.17253 | 26634 ft | 510 kts | 151° |
| 2026-04-23 13:15 | 31.41575 | 119.19736 | 26612 ft | 510 kts | 151° |
| 2026-04-23 13:15 | 31.38730 | 119.22220 | 26635 ft | 510 kts | 151° |
| 2026-04-23 13:15 | 31.35885 | 119.24703 | 26631 ft | 510 kts | 151° |
| 2026-04-23 13:15 | 31.33037 | 119.27187 | 26633 ft | 511 kts | 151° |
| 2026-04-23 13:16 | 31.30188 | 119.29671 | 26639 ft | 511 kts | 151° |
| 2026-04-23 13:16 | 31.27332 | 119.32159 | 26645 ft | 512 kts | 151° |
| 2026-04-23 13:16 | 31.24472 | 119.34649 | 26648 ft | 512 kts | 151° |
| 2026-04-23 13:16 | 31.21612 | 119.37135 | 26644 ft | 512 kts | 151° |
| 2026-04-23 13:17 | 31.18756 | 119.39613 | 26640 ft | 512 kts | 151° |
| 2026-04-23 13:17 | 31.16154 | 119.41935 | 23639 ft | 315 kts | 146° |
| 2026-04-23 13:17 | 31.13206 | 119.43106 | 16716 ft | 553 kts | 167° |
| 2026-04-23 13:17 | 31.09823 | 119.44206 | 17715 ft | 486 kts | 165° |
| 2026-04-23 13:18 | 31.06935 | 119.45950 | 17887 ft | 448 kts | 151° |
| 2026-04-23 13:18 | 31.04401 | 119.47844 | 17532 ft | 417 kts | 152° |
| 2026-04-23 13:18 | 31.02022 | 119.49573 | 17280 ft | 395 kts | 148° |
| 2026-04-23 13:18 | 31.00184 | 119.51931 | 16996 ft | 399 kts | 124° |
| 2026-04-23 13:19 | 30.98777 | 119.54805 | 16782 ft | 421 kts | 124° |
| 2026-04-23 13:19 | 30.97026 | 119.57656 | 16521 ft | 441 kts | 133° |
| 2026-04-23 13:19 | 30.94919 | 119.60238 | 16246 ft | 438 kts | 141° |
| 2026-04-23 13:19 | 30.92616 | 119.62548 | 15975 ft | 435 kts | 145° |
| 2026-04-23 13:20 | 30.90227 | 119.64685 | 15705 ft | 432 kts | 147° |
| 2026-04-23 13:20 | 30.87811 | 119.66745 | 15433 ft | 430 kts | 147° |
| 2026-04-23 13:20 | 30.85426 | 119.68760 | 15173 ft | 428 kts | 147° |
| 2026-04-23 13:20 | 30.83007 | 119.70817 | 14921 ft | 434 kts | 147° |
| 2026-04-23 13:21 | 30.80568 | 119.72911 | 14653 ft | 440 kts | 147° |
| 2026-04-23 13:21 | 30.78024 | 119.75046 | 14741 ft | 458 kts | 150° |
| 2026-04-23 13:21 | 30.75281 | 119.76977 | 15118 ft | 467 kts | 153° |
| 2026-04-23 13:21 | 30.72424 | 119.78836 | 15487 ft | 475 kts | 155° |
| 2026-04-23 13:22 | 30.69444 | 119.80703 | 15488 ft | 490 kts | 156° |
| 2026-04-23 13:22 | 30.66394 | 119.82585 | 14841 ft | 515 kts | 155° |
| 2026-04-23 13:22 | 30.63176 | 119.84541 | 13980 ft | 536 kts | 155° |
| 2026-04-23 13:22 | 30.59856 | 119.86535 | 14011 ft | 530 kts | 155° |
| 2026-04-23 13:23 | 30.56630 | 119.88524 | 14133 ft | 527 kts | 154° |
| 2026-04-23 13:23 | 30.53463 | 119.90622 | 14907 ft | 513 kts | 152° |
| 2026-04-23 13:23 | 30.50329 | 119.92766 | 12760 ft | 547 kts | 152° |
| 2026-04-23 13:23 | 30.46971 | 119.94979 | 12042 ft | 553 kts | 152° |
| 2026-04-23 13:24 | 30.43748 | 119.97106 | 12106 ft | 531 kts | 152° |
| 2026-04-23 13:24 | 30.40441 | 119.99240 | 11111 ft | 540 kts | 152° |
| 2026-04-23 13:24 | 30.37017 | 120.01297 | 9789 ft | 552 kts | 154° |
| 2026-04-23 13:24 | 30.33626 | 120.03289 | 8776 ft | 547 kts | 153° |
| 2026-04-23 13:25 | 30.30228 | 120.05335 | 7068 ft | 555 kts | 153° |
| 2026-04-23 13:25 | 30.26749 | 120.07380 | 6271 ft | 550 kts | 153° |
| 2026-04-23 13:25 | 30.23554 | 120.09264 | 3126 ft | 505 kts | 151° |
| 2026-04-23 13:25 | 30.20801 | 120.11136 | 3656 ft | 423 kts | 148° |
| 2026-04-23 13:26 | 30.18502 | 120.12768 | 3379 ft | 356 kts | 148° |
| 2026-04-23 13:26 | 30.16706 | 120.14468 | 2237 ft | 325 kts | 123° |
| 2026-04-23 13:26 | 30.15818 | 120.16703 | 1744 ft | 285 kts | 106° |
| 2026-04-23 13:26 | 30.15482 | 120.18812 | 1443 ft | 251 kts | 82° |
| 2026-04-23 13:27 | 30.15794 | 120.20645 | 1330 ft | 219 kts | 72° |
| 2026-04-23 13:27 | 30.16334 | 120.22206 | 1151 ft | 199 kts | 65° |
| 2026-04-23 13:27 | 30.16854 | 120.23571 | 1153 ft | 177 kts | 66° |
| 2026-04-23 13:27 | 30.17318 | 120.24985 | 1191 ft | 203 kts | 69° |
| 2026-04-23 13:28 | 30.17825 | 120.26510 | 1802 ft | 207 kts | 67° |
| 2026-04-23 13:28 | 30.18380 | 120.28046 | 1741 ft | 203 kts | 65° |
| 2026-04-23 13:28 | 30.18928 | 120.29471 | 1723 ft | 182 kts | 64° |
| 2026-04-23 13:28 | 30.19436 | 120.30736 | 1727 ft | 166 kts | 63° |
| 2026-04-23 13:29 | 30.19920 | 120.31904 | 1739 ft | 159 kts | 63° |
| 2026-04-23 13:29 | 30.20389 | 120.33025 | 1683 ft | 153 kts | 63° |
| 2026-04-23 13:29 | 30.20865 | 120.34156 | 1359 ft | 153 kts | 62° |
| 2026-04-23 13:29 | 30.21333 | 120.35221 | 1148 ft | 144 kts | 62° |
| 2026-04-23 13:30 | 30.21778 | 120.36227 | 951 ft | 138 kts | 62° |
| 2026-04-23 13:30 | 30.22218 | 120.37219 | 770 ft | 140 kts | 62° |
| 2026-04-23 13:30 | 30.22666 | 120.38230 | 588 ft | 142 kts | 62° |
| 2026-04-23 13:30 | 30.23118 | 120.39246 | 380 ft | 142 kts | 61° |
| 2026-04-23 13:31 | 30.23567 | 120.40243 | 196 ft | 140 kts | 61° |
| 2026-04-23 13:31 | 30.24000 | 120.41229 | 50 ft | 128 kts | 63° |
| 2026-04-23 13:31 | 30.24357 | 120.42052 | 32 ft | 101 kts | 56° |
| 2026-04-23 13:31 | 30.24540 | 120.42467 | 28 ft | 52 kts | 79° |
| 2026-04-23 13:32 | 30.24559 | 120.42683 | 29 ft | 20 kts | 91° |
| 2026-04-23 13:32 | 30.24557 | 120.42833 | 30 ft | 18 kts | 90° |
| 2026-04-23 13:32 | 30.24579 | 120.42973 | 30 ft | 18 kts | 65° |
| 2026-04-23 13:32 | 30.24639 | 120.43112 | 31 ft | 28 kts | 60° |
| 2026-04-23 13:33 | 30.24648 | 120.43267 | 30 ft | 16 kts | 152° |
| 2026-04-23 13:33 | 30.24545 | 120.43253 | 30 ft | 15 kts | 156° |
| 2026-04-23 13:33 | 30.24273 | 120.43429 | 30 ft | 57 kts | 150° |
| 2026-04-23 13:33 | 30.23954 | 120.43631 | 31 ft | 38 kts | 127° |
| 2026-04-23 13:34 | 30.23755 | 120.43799 | 30 ft | 35 kts | 153° |
| 2026-04-23 13:34 | 30.23545 | 120.43923 | 31 ft | 33 kts | 153° |
| 2026-04-23 13:34 | 30.23434 | 120.44095 | 31 ft | 27 kts | 68° |
| 2026-04-23 13:34 | 30.23476 | 120.44170 | 31 ft | 37 kts | 57° |
| 2026-04-23 13:35 | 30.23545 | 120.44199 | 30 ft | 25 kts | 317° |
| 2026-04-23 13:35 | 30.23545 | 120.43947 | 31 ft | 51 kts | 243° |
| 2026-04-23 13:35 | 30.23381 | 120.43594 | 31 ft | 48 kts | 242° |
| 2026-04-23 13:35 | 30.23233 | 120.43257 | 31 ft | 46 kts | 243° |
| 2026-04-23 13:36 | 30.23250 | 120.43101 | 31 ft | 13 kts | 336° |
| 2026-04-23 13:36 | 30.23327 | 120.43056 | 31 ft | 12 kts | 332° |
| 2026-04-23 13:36 | 30.23351 | 120.43001 | 31 ft | 5 kts | 267° |
| 2026-04-23 13:36 | 30.23341 | 120.42977 | 31 ft | 0 kts | 241° |